sensor_id;sensor_type;location;lat;lon;timestamp;P1;durP1;ratioP1;P2;durP2;ratioP2
82640;SDS011;72322;41.918;22.414;2024-03-07T00:02:18;10.15;;;6.47;;
82640;SDS011;72322;41.918;22.414;2024-03-07T00:04:44;6.72;;;4.30;;
82640;SDS011;72322;41.918;22.414;2024-03-07T00:07:10;8.75;;;5.55;;
82640;SDS011;72322;41.918;22.414;2024-03-07T00:09:37;5.95;;;4.30;;
82640;SDS011;72322;41.918;22.414;2024-03-07T00:12:06;6.65;;;4.43;;
82640;SDS011;72322;41.918;22.414;2024-03-07T00:14:32;5.93;;;3.40;;
82640;SDS011;72322;41.918;22.414;2024-03-07T00:17:00;4.88;;;3.25;;
82640;SDS011;72322;41.918;22.414;2024-03-07T00:19:26;4.57;;;3.33;;
82640;SDS011;72322;41.918;22.414;2024-03-07T00:21:53;5.97;;;3.80;;
82640;SDS011;72322;41.918;22.414;2024-03-07T00:24:22;5.65;;;3.85;;
82640;SDS011;72322;41.918;22.414;2024-03-07T00:26:48;8.52;;;5.13;;
82640;SDS011;72322;41.918;22.414;2024-03-07T00:29:18;5.63;;;3.63;;
82640;SDS011;72322;41.918;22.414;2024-03-07T00:31:45;4.10;;;3.13;;
82640;SDS011;72322;41.918;22.414;2024-03-07T00:34:14;4.47;;;3.70;;
82640;SDS011;72322;41.918;22.414;2024-03-07T00:36:44;6.40;;;3.50;;
82640;SDS011;72322;41.918;22.414;2024-03-07T00:39:11;9.48;;;4.28;;
82640;SDS011;72322;41.918;22.414;2024-03-07T00:41:39;5.78;;;3.33;;
82640;SDS011;72322;41.918;22.414;2024-03-07T00:44:06;6.70;;;4.35;;
82640;SDS011;72322;41.918;22.414;2024-03-07T00:46:36;6.63;;;3.70;;
82640;SDS011;72322;41.918;22.414;2024-03-07T00:49:03;6.47;;;4.07;;
82640;SDS011;72322;41.918;22.414;2024-03-07T00:51:29;6.68;;;3.60;;
82640;SDS011;72322;41.918;22.414;2024-03-07T00:53:56;7.97;;;4.38;;
82640;SDS011;72322;41.918;22.414;2024-03-07T00:56:23;8.20;;;5.43;;
82640;SDS011;72322;41.918;22.414;2024-03-07T00:58:49;6.47;;;4.35;;
82640;SDS011;72322;41.918;22.414;2024-03-07T01:01:16;6.93;;;4.40;;
82640;SDS011;72322;41.918;22.414;2024-03-07T01:03:43;5.68;;;4.28;;
82640;SDS011;72322;41.918;22.414;2024-03-07T01:06:10;7.55;;;4.90;;
82640;SDS011;72322;41.918;22.414;2024-03-07T01:08:36;8.82;;;4.57;;
82640;SDS011;72322;41.918;22.414;2024-03-07T01:11:03;9.25;;;5.00;;
82640;SDS011;72322;41.918;22.414;2024-03-07T01:13:38;5.53;;;3.70;;
82640;SDS011;72322;41.918;22.414;2024-03-07T01:16:04;5.68;;;3.40;;
82640;SDS011;72322;41.918;22.414;2024-03-07T01:18:31;6.10;;;3.20;;
82640;SDS011;72322;41.918;22.414;2024-03-07T01:21:00;6.00;;;3.50;;
82640;SDS011;72322;41.918;22.414;2024-03-07T01:23:26;7.03;;;3.60;;
82640;SDS011;72322;41.918;22.414;2024-03-07T01:25:56;8.52;;;4.35;;
82640;SDS011;72322;41.918;22.414;2024-03-07T01:28:23;6.82;;;4.30;;
82640;SDS011;72322;41.918;22.414;2024-03-07T01:30:49;5.22;;;4.07;;
82640;SDS011;72322;41.918;22.414;2024-03-07T01:33:16;7.95;;;4.53;;
82640;SDS011;72322;41.918;22.414;2024-03-07T01:35:42;8.38;;;5.20;;
82640;SDS011;72322;41.918;22.414;2024-03-07T01:38:08;6.45;;;4.13;;
82640;SDS011;72322;41.918;22.414;2024-03-07T01:40:36;8.75;;;5.55;;
82640;SDS011;72322;41.918;22.414;2024-03-07T01:43:02;6.95;;;4.50;;
82640;SDS011;72322;41.918;22.414;2024-03-07T01:45:28;8.82;;;4.63;;
82640;SDS011;72322;41.918;22.414;2024-03-07T01:47:54;5.18;;;3.83;;
82640;SDS011;72322;41.918;22.414;2024-03-07T01:50:21;4.32;;;3.58;;
82640;SDS011;72322;41.918;22.414;2024-03-07T01:52:47;5.28;;;3.33;;
82640;SDS011;72322;41.918;22.414;2024-03-07T01:55:16;4.63;;;3.33;;
82640;SDS011;72322;41.918;22.414;2024-03-07T01:57:42;4.90;;;2.85;;
82640;SDS011;72322;41.918;22.414;2024-03-07T02:00:08;6.63;;;3.30;;
82640;SDS011;72322;41.918;22.414;2024-03-07T02:02:34;4.85;;;3.20;;
82640;SDS011;72322;41.918;22.414;2024-03-07T02:05:01;5.13;;;3.55;;
82640;SDS011;72322;41.918;22.414;2024-03-07T02:07:27;5.80;;;3.60;;
82640;SDS011;72322;41.918;22.414;2024-03-07T02:10:00;5.28;;;3.35;;
82640;SDS011;72322;41.918;22.414;2024-03-07T02:12:26;5.05;;;3.15;;
82640;SDS011;72322;41.918;22.414;2024-03-07T02:14:52;3.63;;;2.80;;
82640;SDS011;72322;41.918;22.414;2024-03-07T02:17:18;4.00;;;2.55;;
82640;SDS011;72322;41.918;22.414;2024-03-07T02:19:45;3.55;;;2.70;;
82640;SDS011;72322;41.918;22.414;2024-03-07T02:22:11;3.35;;;2.17;;
82640;SDS011;72322;41.918;22.414;2024-03-07T02:24:38;2.83;;;1.77;;
82640;SDS011;72322;41.918;22.414;2024-03-07T02:27:04;4.93;;;1.98;;
82640;SDS011;72322;41.918;22.414;2024-03-07T02:29:30;2.17;;;1.85;;
82640;SDS011;72322;41.918;22.414;2024-03-07T02:31:56;3.08;;;1.85;;
82640;SDS011;72322;41.918;22.414;2024-03-07T02:34:23;3.88;;;2.47;;
82640;SDS011;72322;41.918;22.414;2024-03-07T02:36:49;3.35;;;2.10;;
82640;SDS011;72322;41.918;22.414;2024-03-07T02:39:16;3.35;;;1.95;;
82640;SDS011;72322;41.918;22.414;2024-03-07T02:41:42;2.90;;;2.50;;
82640;SDS011;72322;41.918;22.414;2024-03-07T02:44:08;3.13;;;2.05;;
82640;SDS011;72322;41.918;22.414;2024-03-07T02:46:34;5.72;;;2.45;;
82640;SDS011;72322;41.918;22.414;2024-03-07T02:49:00;4.05;;;2.38;;
82640;SDS011;72322;41.918;22.414;2024-03-07T02:51:27;3.10;;;2.33;;
82640;SDS011;72322;41.918;22.414;2024-03-07T02:53:53;4.70;;;2.20;;
82640;SDS011;72322;41.918;22.414;2024-03-07T02:56:19;2.87;;;2.00;;
82640;SDS011;72322;41.918;22.414;2024-03-07T02:58:45;2.72;;;2.05;;
82640;SDS011;72322;41.918;22.414;2024-03-07T03:01:11;2.75;;;1.85;;
82640;SDS011;72322;41.918;22.414;2024-03-07T03:03:37;2.40;;;1.83;;
82640;SDS011;72322;41.918;22.414;2024-03-07T03:06:07;2.78;;;1.50;;
82640;SDS011;72322;41.918;22.414;2024-03-07T03:08:33;3.45;;;1.73;;
82640;SDS011;72322;41.918;22.414;2024-03-07T03:11:00;3.38;;;1.98;;
82640;SDS011;72322;41.918;22.414;2024-03-07T03:13:26;3.97;;;1.73;;
82640;SDS011;72322;41.918;22.414;2024-03-07T03:15:53;3.08;;;1.90;;
82640;SDS011;72322;41.918;22.414;2024-03-07T03:20:46;2.10;;;1.58;;
82640;SDS011;72322;41.918;22.414;2024-03-07T03:23:13;2.53;;;1.67;;
82640;SDS011;72322;41.918;22.414;2024-03-07T03:25:40;2.88;;;1.85;;
82640;SDS011;72322;41.918;22.414;2024-03-07T03:28:06;2.15;;;1.75;;
82640;SDS011;72322;41.918;22.414;2024-03-07T03:30:38;3.28;;;1.88;;
82640;SDS011;72322;41.918;22.414;2024-03-07T03:33:04;4.90;;;2.75;;
82640;SDS011;72322;41.918;22.414;2024-03-07T03:35:32;3.58;;;2.22;;
82640;SDS011;72322;41.918;22.414;2024-03-07T03:37:58;3.20;;;2.35;;
82640;SDS011;72322;41.918;22.414;2024-03-07T03:40:24;2.92;;;2.63;;
82640;SDS011;72322;41.918;22.414;2024-03-07T03:42:51;4.18;;;2.40;;
82640;SDS011;72322;41.918;22.414;2024-03-07T03:45:17;6.85;;;2.80;;
82640;SDS011;72322;41.918;22.414;2024-03-07T03:47:43;4.38;;;2.40;;
82640;SDS011;72322;41.918;22.414;2024-03-07T03:50:11;3.88;;;2.22;;
82640;SDS011;72322;41.918;22.414;2024-03-07T03:52:38;4.45;;;2.85;;
82640;SDS011;72322;41.918;22.414;2024-03-07T03:55:04;4.25;;;2.80;;
82640;SDS011;72322;41.918;22.414;2024-03-07T03:57:31;3.85;;;1.85;;
82640;SDS011;72322;41.918;22.414;2024-03-07T03:59:58;5.05;;;3.25;;
82640;SDS011;72322;41.918;22.414;2024-03-07T04:02:24;2.30;;;1.58;;
82640;SDS011;72322;41.918;22.414;2024-03-07T04:04:53;2.83;;;1.75;;
82640;SDS011;72322;41.918;22.414;2024-03-07T04:07:20;1.65;;;1.20;;
82640;SDS011;72322;41.918;22.414;2024-03-07T04:09:46;2.70;;;1.10;;
82640;SDS011;72322;41.918;22.414;2024-03-07T04:12:12;2.22;;;1.17;;
82640;SDS011;72322;41.918;22.414;2024-03-07T04:14:41;2.53;;;1.55;;
82640;SDS011;72322;41.918;22.414;2024-03-07T04:17:08;2.13;;;1.38;;
82640;SDS011;72322;41.918;22.414;2024-03-07T04:19:36;2.28;;;1.45;;
82640;SDS011;72322;41.918;22.414;2024-03-07T04:22:03;1.50;;;0.82;;
82640;SDS011;72322;41.918;22.414;2024-03-07T04:24:30;1.65;;;0.90;;
82640;SDS011;72322;41.918;22.414;2024-03-07T04:26:58;3.83;;;1.33;;
82640;SDS011;72322;41.918;22.414;2024-03-07T04:29:25;2.05;;;1.20;;
82640;SDS011;72322;41.918;22.414;2024-03-07T04:31:51;2.47;;;0.90;;
82640;SDS011;72322;41.918;22.414;2024-03-07T04:34:18;1.08;;;0.63;;
82640;SDS011;72322;41.918;22.414;2024-03-07T04:36:44;4.03;;;1.02;;
82640;SDS011;72322;41.918;22.414;2024-03-07T04:39:10;1.52;;;1.20;;
82640;SDS011;72322;41.918;22.414;2024-03-07T04:41:47;1.73;;;0.80;;
82640;SDS011;72322;41.918;22.414;2024-03-07T04:44:14;2.03;;;1.00;;
82640;SDS011;72322;41.918;22.414;2024-03-07T04:46:40;3.50;;;1.80;;
82640;SDS011;72322;41.918;22.414;2024-03-07T04:49:09;1.20;;;0.93;;
82640;SDS011;72322;41.918;22.414;2024-03-07T04:51:35;2.45;;;1.55;;
82640;SDS011;72322;41.918;22.414;2024-03-07T04:54:01;3.30;;;1.55;;
82640;SDS011;72322;41.918;22.414;2024-03-07T04:56:27;4.05;;;1.42;;
82640;SDS011;72322;41.918;22.414;2024-03-07T04:58:54;3.03;;;2.05;;
82640;SDS011;72322;41.918;22.414;2024-03-07T05:01:20;4.03;;;2.00;;
82640;SDS011;72322;41.918;22.414;2024-03-07T05:03:47;3.97;;;2.20;;
82640;SDS011;72322;41.918;22.414;2024-03-07T05:06:13;3.10;;;1.77;;
82640;SDS011;72322;41.918;22.414;2024-03-07T05:08:41;4.10;;;2.28;;
82640;SDS011;72322;41.918;22.414;2024-03-07T05:11:07;9.02;;;3.40;;
82640;SDS011;72322;41.918;22.414;2024-03-07T05:13:33;5.25;;;2.70;;
82640;SDS011;72322;41.918;22.414;2024-03-07T05:16:00;9.60;;;3.08;;
82640;SDS011;72322;41.918;22.414;2024-03-07T05:18:26;4.90;;;3.00;;
82640;SDS011;72322;41.918;22.414;2024-03-07T05:20:52;5.13;;;2.97;;
82640;SDS011;72322;41.918;22.414;2024-03-07T05:23:20;5.53;;;3.22;;
82640;SDS011;72322;41.918;22.414;2024-03-07T05:25:46;4.85;;;3.58;;
82640;SDS011;72322;41.918;22.414;2024-03-07T05:28:13;6.13;;;3.70;;
82640;SDS011;72322;41.918;22.414;2024-03-07T05:30:39;5.82;;;2.97;;
82640;SDS011;72322;41.918;22.414;2024-03-07T05:33:06;7.88;;;3.45;;
82640;SDS011;72322;41.918;22.414;2024-03-07T05:35:32;5.35;;;3.35;;
82640;SDS011;72322;41.918;22.414;2024-03-07T05:37:58;7.07;;;3.42;;
82640;SDS011;72322;41.918;22.414;2024-03-07T05:40:26;5.15;;;2.88;;
82640;SDS011;72322;41.918;22.414;2024-03-07T05:42:52;6.78;;;3.95;;
82640;SDS011;72322;41.918;22.414;2024-03-07T05:45:20;8.73;;;4.15;;
82640;SDS011;72322;41.918;22.414;2024-03-07T05:47:46;7.53;;;4.05;;
82640;SDS011;72322;41.918;22.414;2024-03-07T05:50:12;6.50;;;4.18;;
82640;SDS011;72322;41.918;22.414;2024-03-07T05:52:38;6.43;;;4.47;;
82640;SDS011;72322;41.918;22.414;2024-03-07T05:55:05;9.23;;;4.70;;
82640;SDS011;72322;41.918;22.414;2024-03-07T05:57:31;9.90;;;5.20;;
82640;SDS011;72322;41.918;22.414;2024-03-07T05:59:58;9.20;;;4.88;;
82640;SDS011;72322;41.918;22.414;2024-03-07T06:02:24;10.23;;;6.30;;
82640;SDS011;72322;41.918;22.414;2024-03-07T06:04:50;10.02;;;6.57;;
82640;SDS011;72322;41.918;22.414;2024-03-07T06:07:16;8.88;;;5.65;;
82640;SDS011;72322;41.918;22.414;2024-03-07T06:09:42;8.40;;;4.85;;
82640;SDS011;72322;41.918;22.414;2024-03-07T06:12:08;5.53;;;3.22;;
82640;SDS011;72322;41.918;22.414;2024-03-07T06:14:34;4.43;;;2.80;;
82640;SDS011;72322;41.918;22.414;2024-03-07T06:17:00;8.23;;;4.10;;
82640;SDS011;72322;41.918;22.414;2024-03-07T06:19:27;10.90;;;5.10;;
82640;SDS011;72322;41.918;22.414;2024-03-07T06:21:53;9.98;;;5.90;;
82640;SDS011;72322;41.918;22.414;2024-03-07T06:24:21;9.13;;;4.47;;
82640;SDS011;72322;41.918;22.414;2024-03-07T06:26:48;8.15;;;4.55;;
82640;SDS011;72322;41.918;22.414;2024-03-07T06:29:24;4.95;;;3.22;;
82640;SDS011;72322;41.918;22.414;2024-03-07T06:31:51;4.93;;;2.60;;
82640;SDS011;72322;41.918;22.414;2024-03-07T06:34:19;6.20;;;3.67;;
82640;SDS011;72322;41.918;22.414;2024-03-07T06:36:45;11.05;;;6.35;;
82640;SDS011;72322;41.918;22.414;2024-03-07T06:39:11;8.25;;;4.50;;
82640;SDS011;72322;41.918;22.414;2024-03-07T06:41:37;8.27;;;4.93;;
82640;SDS011;72322;41.918;22.414;2024-03-07T06:44:04;7.15;;;4.20;;
82640;SDS011;72322;41.918;22.414;2024-03-07T06:46:30;8.00;;;4.78;;
82640;SDS011;72322;41.918;22.414;2024-03-07T06:48:57;7.05;;;6.32;;
82640;SDS011;72322;41.918;22.414;2024-03-07T06:51:23;7.80;;;4.88;;
82640;SDS011;72322;41.918;22.414;2024-03-07T06:53:50;9.77;;;5.80;;
82640;SDS011;72322;41.918;22.414;2024-03-07T06:56:16;8.38;;;4.50;;
82640;SDS011;72322;41.918;22.414;2024-03-07T06:58:42;4.05;;;2.30;;
82640;SDS011;72322;41.918;22.414;2024-03-07T07:01:11;5.25;;;3.13;;
82640;SDS011;72322;41.918;22.414;2024-03-07T07:03:40;6.97;;;3.60;;
82640;SDS011;72322;41.918;22.414;2024-03-07T07:06:08;4.50;;;3.28;;
82640;SDS011;72322;41.918;22.414;2024-03-07T07:08:35;7.28;;;5.10;;
82640;SDS011;72322;41.918;22.414;2024-03-07T07:11:01;10.02;;;4.95;;
82640;SDS011;72322;41.918;22.414;2024-03-07T07:13:29;8.35;;;4.18;;
82640;SDS011;72322;41.918;22.414;2024-03-07T07:15:55;8.00;;;5.47;;
82640;SDS011;72322;41.918;22.414;2024-03-07T07:18:21;6.65;;;4.15;;
82640;SDS011;72322;41.918;22.414;2024-03-07T07:20:49;9.10;;;5.32;;
82640;SDS011;72322;41.918;22.414;2024-03-07T07:23:17;9.10;;;4.40;;
82640;SDS011;72322;41.918;22.414;2024-03-07T07:25:43;6.70;;;3.70;;
82640;SDS011;72322;41.918;22.414;2024-03-07T07:28:09;13.75;;;5.22;;
82640;SDS011;72322;41.918;22.414;2024-03-07T07:30:36;8.00;;;4.75;;
82640;SDS011;72322;41.918;22.414;2024-03-07T07:33:02;7.95;;;5.15;;
82640;SDS011;72322;41.918;22.414;2024-03-07T07:35:29;7.88;;;5.10;;
82640;SDS011;72322;41.918;22.414;2024-03-07T07:37:56;10.90;;;6.75;;
82640;SDS011;72322;41.918;22.414;2024-03-07T07:40:22;8.32;;;4.28;;
82640;SDS011;72322;41.918;22.414;2024-03-07T07:42:50;5.18;;;3.50;;
82640;SDS011;72322;41.918;22.414;2024-03-07T07:45:17;6.28;;;3.20;;
82640;SDS011;72322;41.918;22.414;2024-03-07T07:47:44;6.13;;;3.35;;
82640;SDS011;72322;41.918;22.414;2024-03-07T07:50:14;3.47;;;2.30;;
82640;SDS011;72322;41.918;22.414;2024-03-07T07:52:50;4.85;;;3.03;;
82640;SDS011;72322;41.918;22.414;2024-03-07T07:55:18;4.05;;;2.65;;
82640;SDS011;72322;41.918;22.414;2024-03-07T07:57:45;7.40;;;4.22;;
82640;SDS011;72322;41.918;22.414;2024-03-07T08:00:15;8.65;;;5.35;;
82640;SDS011;72322;41.918;22.414;2024-03-07T08:02:51;7.40;;;3.90;;
82640;SDS011;72322;41.918;22.414;2024-03-07T08:05:18;8.38;;;5.28;;
82640;SDS011;72322;41.918;22.414;2024-03-07T08:07:47;10.32;;;6.00;;
82640;SDS011;72322;41.918;22.414;2024-03-07T08:10:14;7.78;;;4.57;;
82640;SDS011;72322;41.918;22.414;2024-03-07T08:12:41;6.90;;;4.20;;
82640;SDS011;72322;41.918;22.414;2024-03-07T08:15:13;13.70;;;7.63;;
82640;SDS011;72322;41.918;22.414;2024-03-07T08:17:40;9.40;;;5.30;;
82640;SDS011;72322;41.918;22.414;2024-03-07T08:20:08;11.43;;;5.93;;
82640;SDS011;72322;41.918;22.414;2024-03-07T08:22:37;9.73;;;6.20;;
82640;SDS011;72322;41.918;22.414;2024-03-07T08:25:03;6.18;;;3.45;;
82640;SDS011;72322;41.918;22.414;2024-03-07T08:27:34;3.40;;;2.42;;
82640;SDS011;72322;41.918;22.414;2024-03-07T08:30:01;3.55;;;1.80;;
82640;SDS011;72322;41.918;22.414;2024-03-07T08:32:27;8.32;;;2.30;;
82640;SDS011;72322;41.918;22.414;2024-03-07T08:34:53;3.70;;;1.90;;
82640;SDS011;72322;41.918;22.414;2024-03-07T08:37:19;5.80;;;3.80;;
82640;SDS011;72322;41.918;22.414;2024-03-07T08:39:46;3.72;;;2.53;;
82640;SDS011;72322;41.918;22.414;2024-03-07T08:42:12;5.07;;;2.97;;
82640;SDS011;72322;41.918;22.414;2024-03-07T08:44:38;3.22;;;2.03;;
82640;SDS011;72322;41.918;22.414;2024-03-07T08:47:04;2.10;;;1.52;;
82640;SDS011;72322;41.918;22.414;2024-03-07T08:49:31;2.13;;;1.00;;
82640;SDS011;72322;41.918;22.414;2024-03-07T08:51:57;2.30;;;1.50;;
82640;SDS011;72322;41.918;22.414;2024-03-07T08:54:23;4.15;;;1.70;;
82640;SDS011;72322;41.918;22.414;2024-03-07T08:56:49;2.53;;;1.30;;
82640;SDS011;72322;41.918;22.414;2024-03-07T08:59:15;4.00;;;1.05;;
82640;SDS011;72322;41.918;22.414;2024-03-07T09:01:43;2.08;;;1.48;;
82640;SDS011;72322;41.918;22.414;2024-03-07T09:04:09;2.72;;;1.67;;
82640;SDS011;72322;41.918;22.414;2024-03-07T09:09:02;5.15;;;1.90;;
82640;SDS011;72322;41.918;22.414;2024-03-07T09:11:28;4.25;;;2.85;;
82640;SDS011;72322;41.918;22.414;2024-03-07T09:13:54;2.88;;;1.75;;
82640;SDS011;72322;41.918;22.414;2024-03-07T09:16:21;1.70;;;1.45;;
82640;SDS011;72322;41.918;22.414;2024-03-07T09:18:47;2.15;;;1.30;;
82640;SDS011;72322;41.918;22.414;2024-03-07T09:21:13;4.05;;;2.28;;
82640;SDS011;72322;41.918;22.414;2024-03-07T09:23:40;2.63;;;1.38;;
82640;SDS011;72322;41.918;22.414;2024-03-07T09:26:06;1.88;;;1.40;;
82640;SDS011;72322;41.918;22.414;2024-03-07T09:28:33;1.45;;;0.98;;
82640;SDS011;72322;41.918;22.414;2024-03-07T09:30:59;3.92;;;1.55;;
82640;SDS011;72322;41.918;22.414;2024-03-07T09:33:25;3.40;;;1.10;;
82640;SDS011;72322;41.918;22.414;2024-03-07T09:35:51;2.70;;;1.20;;
82640;SDS011;72322;41.918;22.414;2024-03-07T09:38:18;2.05;;;1.17;;
82640;SDS011;72322;41.918;22.414;2024-03-07T09:40:45;4.18;;;2.42;;
82640;SDS011;72322;41.918;22.414;2024-03-07T09:45:38;5.07;;;2.28;;
82640;SDS011;72322;41.918;22.414;2024-03-07T09:48:06;5.40;;;2.20;;
82640;SDS011;72322;41.918;22.414;2024-03-07T09:50:34;2.85;;;1.50;;
82640;SDS011;72322;41.918;22.414;2024-03-07T09:53:00;2.85;;;1.35;;
82640;SDS011;72322;41.918;22.414;2024-03-07T09:55:28;2.75;;;1.67;;
82640;SDS011;72322;41.918;22.414;2024-03-07T09:57:54;3.08;;;2.03;;
82640;SDS011;72322;41.918;22.414;2024-03-07T10:00:21;2.28;;;1.20;;
82640;SDS011;72322;41.918;22.414;2024-03-07T10:02:48;4.10;;;1.63;;
82640;SDS011;72322;41.918;22.414;2024-03-07T10:05:15;3.60;;;1.48;;
82640;SDS011;72322;41.918;22.414;2024-03-07T10:07:44;1.52;;;1.00;;
82640;SDS011;72322;41.918;22.414;2024-03-07T10:10:10;2.28;;;1.00;;
82640;SDS011;72322;41.918;22.414;2024-03-07T10:12:37;4.53;;;1.65;;
82640;SDS011;72322;41.918;22.414;2024-03-07T10:15:04;4.10;;;1.38;;
82640;SDS011;72322;41.918;22.414;2024-03-07T10:17:30;2.90;;;1.58;;
82640;SDS011;72322;41.918;22.414;2024-03-07T10:19:59;5.13;;;2.00;;
82640;SDS011;72322;41.918;22.414;2024-03-07T10:22:26;3.08;;;1.35;;
82640;SDS011;72322;41.918;22.414;2024-03-07T10:24:53;1.95;;;1.30;;
82640;SDS011;72322;41.918;22.414;2024-03-07T10:27:20;6.53;;;2.92;;
82640;SDS011;72322;41.918;22.414;2024-03-07T10:29:46;5.85;;;1.23;;
82640;SDS011;72322;41.918;22.414;2024-03-07T10:32:18;3.72;;;1.05;;
82640;SDS011;72322;41.918;22.414;2024-03-07T10:34:44;1.38;;;1.20;;
82640;SDS011;72322;41.918;22.414;2024-03-07T10:37:12;3.50;;;1.67;;
82640;SDS011;72322;41.918;22.414;2024-03-07T10:39:42;4.15;;;1.80;;
82640;SDS011;72322;41.918;22.414;2024-03-07T10:42:09;2.53;;;1.10;;
82640;SDS011;72322;41.918;22.414;2024-03-07T10:44:38;2.30;;;1.27;;
82640;SDS011;72322;41.918;22.414;2024-03-07T10:47:06;2.53;;;1.02;;
82640;SDS011;72322;41.918;22.414;2024-03-07T10:49:36;2.88;;;1.52;;
82640;SDS011;72322;41.918;22.414;2024-03-07T10:52:10;2.70;;;1.23;;
82640;SDS011;72322;41.918;22.414;2024-03-07T10:54:42;4.68;;;1.38;;
82640;SDS011;72322;41.918;22.414;2024-03-07T10:57:15;5.38;;;1.00;;
82640;SDS011;72322;41.918;22.414;2024-03-07T10:59:49;2.45;;;1.63;;
82640;SDS011;72322;41.918;22.414;2024-03-07T11:02:31;2.58;;;1.40;;
82640;SDS011;72322;41.918;22.414;2024-03-07T11:04:58;2.78;;;1.15;;
82640;SDS011;72322;41.918;22.414;2024-03-07T11:07:25;2.05;;;1.10;;
82640;SDS011;72322;41.918;22.414;2024-03-07T11:09:52;4.20;;;1.27;;
82640;SDS011;72322;41.918;22.414;2024-03-07T11:12:23;2.75;;;1.25;;
82640;SDS011;72322;41.918;22.414;2024-03-07T11:14:50;1.55;;;1.10;;
82640;SDS011;72322;41.918;22.414;2024-03-07T11:17:17;5.45;;;1.30;;
82640;SDS011;72322;41.918;22.414;2024-03-07T11:19:44;4.43;;;1.38;;
82640;SDS011;72322;41.918;22.414;2024-03-07T11:22:25;7.70;;;3.55;;
82640;SDS011;72322;41.918;22.414;2024-03-07T11:25:00;3.67;;;1.73;;
82640;SDS011;72322;41.918;22.414;2024-03-07T11:27:31;1.35;;;1.05;;
82640;SDS011;72322;41.918;22.414;2024-03-07T11:30:04;2.28;;;1.25;;
82640;SDS011;72322;41.918;22.414;2024-03-07T11:32:34;2.45;;;1.27;;
82640;SDS011;72322;41.918;22.414;2024-03-07T11:35:03;2.22;;;1.60;;
82640;SDS011;72322;41.918;22.414;2024-03-07T11:37:39;5.07;;;1.70;;
82640;SDS011;72322;41.918;22.414;2024-03-07T11:42:45;2.08;;;0.80;;
82640;SDS011;72322;41.918;22.414;2024-03-07T11:45:13;2.65;;;1.10;;
82640;SDS011;72322;41.918;22.414;2024-03-07T11:47:55;3.72;;;1.17;;
82640;SDS011;72322;41.918;22.414;2024-03-07T11:50:37;3.42;;;1.27;;
82640;SDS011;72322;41.918;22.414;2024-03-07T11:53:05;3.50;;;1.60;;
82640;SDS011;72322;41.918;22.414;2024-03-07T11:55:31;3.17;;;1.45;;
82640;SDS011;72322;41.918;22.414;2024-03-07T11:58:12;3.15;;;1.00;;
82640;SDS011;72322;41.918;22.414;2024-03-07T12:00:42;2.88;;;0.90;;
82640;SDS011;72322;41.918;22.414;2024-03-07T12:03:19;2.80;;;1.50;;
82640;SDS011;72322;41.918;22.414;2024-03-07T12:05:50;5.75;;;1.70;;
82640;SDS011;72322;41.918;22.414;2024-03-07T12:08:17;3.85;;;1.20;;
82640;SDS011;72322;41.918;22.414;2024-03-07T12:10:44;4.20;;;1.30;;
82640;SDS011;72322;41.918;22.414;2024-03-07T12:13:11;5.43;;;1.02;;
82640;SDS011;72322;41.918;22.414;2024-03-07T12:15:40;2.78;;;1.15;;
82640;SDS011;72322;41.918;22.414;2024-03-07T12:18:06;3.75;;;0.80;;
82640;SDS011;72322;41.918;22.414;2024-03-07T12:23:00;4.60;;;1.35;;
82640;SDS011;72322;41.918;22.414;2024-03-07T12:25:27;2.78;;;1.23;;
82640;SDS011;72322;41.918;22.414;2024-03-07T12:28:10;2.40;;;1.52;;
82640;SDS011;72322;41.918;22.414;2024-03-07T12:30:57;2.58;;;1.52;;
82640;SDS011;72322;41.918;22.414;2024-03-07T12:33:23;3.33;;;1.50;;
82640;SDS011;72322;41.918;22.414;2024-03-07T12:35:53;4.80;;;1.60;;
82640;SDS011;72322;41.918;22.414;2024-03-07T12:38:25;3.85;;;1.23;;
82640;SDS011;72322;41.918;22.414;2024-03-07T12:41:03;2.97;;;1.02;;
82640;SDS011;72322;41.918;22.414;2024-03-07T12:43:31;4.13;;;1.23;;
82640;SDS011;72322;41.918;22.414;2024-03-07T12:45:57;4.03;;;2.45;;
82640;SDS011;72322;41.918;22.414;2024-03-07T12:48:24;5.03;;;2.33;;
82640;SDS011;72322;41.918;22.414;2024-03-07T12:50:50;4.72;;;3.97;;
82640;SDS011;72322;41.918;22.414;2024-03-07T12:53:20;3.08;;;1.50;;
82640;SDS011;72322;41.918;22.414;2024-03-07T12:58:13;2.33;;;0.95;;
82640;SDS011;72322;41.918;22.414;2024-03-07T13:00:40;2.50;;;1.23;;
82640;SDS011;72322;41.918;22.414;2024-03-07T13:03:07;5.93;;;1.90;;
82640;SDS011;72322;41.918;22.414;2024-03-07T13:05:36;2.80;;;0.93;;
82640;SDS011;72322;41.918;22.414;2024-03-07T13:08:08;2.63;;;0.80;;
82640;SDS011;72322;41.918;22.414;2024-03-07T13:10:44;5.20;;;2.00;;
82640;SDS011;72322;41.918;22.414;2024-03-07T13:13:10;2.47;;;1.30;;
82640;SDS011;72322;41.918;22.414;2024-03-07T13:15:37;2.20;;;1.15;;
82640;SDS011;72322;41.918;22.414;2024-03-07T13:18:04;2.55;;;1.33;;
82640;SDS011;72322;41.918;22.414;2024-03-07T13:20:30;2.30;;;1.30;;
82640;SDS011;72322;41.918;22.414;2024-03-07T13:22:57;3.05;;;1.27;;
82640;SDS011;72322;41.918;22.414;2024-03-07T13:25:26;4.60;;;2.50;;
82640;SDS011;72322;41.918;22.414;2024-03-07T13:27:56;3.47;;;1.33;;
82640;SDS011;72322;41.918;22.414;2024-03-07T13:30:25;2.10;;;1.27;;
82640;SDS011;72322;41.918;22.414;2024-03-07T13:32:55;3.05;;;1.20;;
82640;SDS011;72322;41.918;22.414;2024-03-07T13:35:22;1.90;;;1.35;;
82640;SDS011;72322;41.918;22.414;2024-03-07T13:37:50;2.40;;;1.63;;
82640;SDS011;72322;41.918;22.414;2024-03-07T13:40:16;3.97;;;1.52;;
82640;SDS011;72322;41.918;22.414;2024-03-07T13:42:52;3.58;;;1.92;;
82640;SDS011;72322;41.918;22.414;2024-03-07T13:45:20;2.22;;;1.00;;
82640;SDS011;72322;41.918;22.414;2024-03-07T13:50:14;2.05;;;1.20;;
82640;SDS011;72322;41.918;22.414;2024-03-07T13:55:19;2.40;;;1.67;;
82640;SDS011;72322;41.918;22.414;2024-03-07T13:57:49;4.22;;;1.10;;
82640;SDS011;72322;41.918;22.414;2024-03-07T14:08:28;2.75;;;1.48;;
82640;SDS011;72322;41.918;22.414;2024-03-07T14:16:40;3.53;;;1.20;;
82640;SDS011;72322;41.918;22.414;2024-03-07T14:32:39;2.22;;;1.20;;
82640;SDS011;72322;41.918;22.414;2024-03-07T14:35:11;1.83;;;0.82;;
82640;SDS011;72322;41.918;22.414;2024-03-07T14:37:49;1.77;;;0.93;;
82640;SDS011;72322;41.918;22.414;2024-03-07T14:40:17;6.15;;;2.15;;
82640;SDS011;72322;41.918;22.414;2024-03-07T14:42:45;3.10;;;1.63;;
82640;SDS011;72322;41.918;22.414;2024-03-07T14:45:13;2.60;;;1.30;;
82640;SDS011;72322;41.918;22.414;2024-03-07T14:47:41;9.85;;;6.10;;
82640;SDS011;72322;41.918;22.414;2024-03-07T14:50:08;3.15;;;1.42;;
82640;SDS011;72322;41.918;22.414;2024-03-07T14:52:35;4.60;;;1.88;;
82640;SDS011;72322;41.918;22.414;2024-03-07T14:55:06;3.00;;;1.45;;
82640;SDS011;72322;41.918;22.414;2024-03-07T14:57:33;4.47;;;1.85;;
82640;SDS011;72322;41.918;22.414;2024-03-07T14:59:59;3.65;;;1.20;;
82640;SDS011;72322;41.918;22.414;2024-03-07T15:02:25;5.20;;;2.60;;
82640;SDS011;72322;41.918;22.414;2024-03-07T15:04:52;5.15;;;2.00;;
82640;SDS011;72322;41.918;22.414;2024-03-07T15:07:18;5.07;;;2.00;;
82640;SDS011;72322;41.918;22.414;2024-03-07T15:09:48;4.35;;;2.67;;
82640;SDS011;72322;41.918;22.414;2024-03-07T15:12:15;6.38;;;2.40;;
82640;SDS011;72322;41.918;22.414;2024-03-07T15:14:42;18.88;;;8.80;;
82640;SDS011;72322;41.918;22.414;2024-03-07T15:17:08;8.77;;;3.25;;
82640;SDS011;72322;41.918;22.414;2024-03-07T15:19:34;4.45;;;2.30;;
82640;SDS011;72322;41.918;22.414;2024-03-07T15:22:01;15.80;;;8.40;;
82640;SDS011;72322;41.918;22.414;2024-03-07T15:24:28;2.47;;;1.70;;